Time;durP1;ratioP1;P1;durP2;ratioP2;P2;SDS_P1;SDS_P2;PMS_P1;PMS_P2;Temp;Humidity;BMP_temperature;BMP_pressure;BME280_temperature;BME280_humidity;BME280_pressure;Samples;Min_cycle;Max_cycle;Signal;HPM_P1;HPM_P2
2022/10/08 00:01:01;;;;;;;;;;;16.60;66.80;;;;;;5016850;28;19999;-79
2022/10/08 00:03:28;;;;;;;;;;;16.60;66.80;;;;;;5016379;28;19924;-79
2022/10/08 00:05:56;;;;;;;;;;;16.60;66.90;;;;;;5032841;28;19920;-80
2022/10/08 00:08:22;;;;;;;;;;;16.60;67.50;;;;;;5033109;28;20392;-80
2022/10/08 00:10:52;;;;;;;;;;;16.60;66.90;;;;;;5033159;28;19925;-79
2022/10/08 00:13:18;;;;;;;;;;;16.60;66.90;;;;;;5033889;28;20037;-79
2022/10/08 00:15:44;;;;;;;;;;;16.60;66.90;;;;;;5032725;28;20374;-80
2022/10/08 00:18:10;;;;;;;;;;;16.60;66.90;;;;;;5016721;28;20000;-79
2022/10/08 00:20:35;;;;;;;;;;;16.60;66.90;;;;;;5016551;28;19913;-79
2022/10/08 00:23:01;;;;;;;;;;;16.60;66.90;;;;;;5033021;28;19913;-79
2022/10/08 00:25:27;;;;;;;;;;;16.60;67.00;;;;;;5032656;28;19924;-80
2022/10/08 00:27:53;;;;;;;;;;;16.50;66.90;;;;;;5033986;28;20008;-79
2022/10/08 00:30:18;;;;;;;;;;;16.60;67.00;;;;;;5032168;28;20039;-80
2022/10/08 00:32:44;;;;;;;;;;;16.60;67.00;;;;;;5033926;28;19952;-79
2022/10/08 00:35:10;;;;;;;;;;;16.60;67.00;;;;;;5033373;28;19917;-81
2022/10/08 00:37:35;;;;;;;;;;;16.60;67.00;;;;;;5032801;28;19913;-79
2022/10/08 00:40:01;;;;;;;;;;;16.60;67.00;;;;;;5032482;28;19917;-80
2022/10/08 00:42:27;;;;;;;;;;;16.60;67.00;;;;;;5032286;28;19949;-80
2022/10/08 00:44:54;;;;;;;;;;;16.60;67.00;;;;;;5032409;28;20368;-80
2022/10/08 00:47:30;;;;;;;;;;;16.60;67.00;;;;;;5032588;28;20328;-80
2022/10/08 00:49:58;;;;;;;;;;;16.60;67.10;;;;;;5048680;28;20004;-80
2022/10/08 00:52:25;;;;;;;;;;;16.60;67.10;;;;;;5032624;28;19945;-79
2022/10/08 00:54:51;;;;;;;;;;;16.60;67.10;;;;;;5036049;28;19991;-80
2022/10/08 00:57:17;;;;;;;;;;;16.60;67.10;;;;;;5037657;28;20450;-80
2022/10/08 00:59:42;;;;;;;;;;;16.50;67.00;;;;;;5037645;28;20419;-79
2022/10/08 01:02:08;;;;;;;;;;;16.60;67.10;;;;;;5020542;28;19913;-80
2022/10/08 01:04:35;;;;;;;;;;;16.60;67.10;;;;;;5036121;28;20282;-80
2022/10/08 01:07:04;;;;;;;;;;;16.50;67.00;;;;;;5019780;28;20012;-79
2022/10/08 01:09:32;;;;;;;;;;;16.60;67.10;;;;;;5053377;28;19909;-80
2022/10/08 01:12:01;;;;;;;;;;;16.60;67.10;;;;;;5036300;28;19913;-80
2022/10/08 01:14:45;;;;;;;;;;;16.60;67.80;;;;;;5053292;28;20362;-80
2022/10/08 01:17:10;;;;;;;;;;;16.60;67.10;;;;;;5052430;28;19914;-79
2022/10/08 01:19:39;;;;;;;;;;;16.60;67.10;;;;;;5035922;28;19910;-80
2022/10/08 01:22:24;;;;;;;;;;;16.60;67.20;;;;;;5052867;28;19913;-80
2022/10/08 01:27:52;;;;;;;;;;;16.60;67.20;;;;;;5053149;28;19917;-79
2022/10/08 01:30:18;;;;;;;;;;;16.60;67.20;;;;;;5036617;28;20378;-79
2022/10/08 01:32:47;;;;;;;;;;;16.50;67.20;;;;;;5052874;28;19924;-79
2022/10/08 01:35:15;;;;;;;;;;;16.60;67.30;;;;;;5037478;28;20424;-79
2022/10/08 01:37:42;;;;;;;;;;;16.50;67.20;;;;;;5036844;28;19941;-79
2022/10/08 01:40:11;;;;;;;;;;;16.50;67.20;;;;;;5036682;28;19932;-79
2022/10/08 01:42:38;;;;;;;;;;;16.60;67.30;;;;;;5035772;28;19916;-79
2022/10/08 01:45:08;;;;;;;;;;;16.60;67.30;;;;;;5036832;28;19924;-79
2022/10/08 01:47:38;;;;;;;;;;;16.60;67.30;;;;;;5036680;28;20011;-79
2022/10/08 01:50:12;;;;;;;;;;;16.60;67.30;;;;;;5036413;28;19920;-79
2022/10/08 01:52:46;;;;;;;;;;;16.60;67.30;;;;;;5035444;28;19947;-79
2022/10/08 01:55:15;;;;;;;;;;;16.50;67.30;;;;;;5035187;28;20053;-79
2022/10/08 01:57:43;;;;;;;;;;;16.50;67.30;;;;;;5036221;28;19909;-79
2022/10/08 02:00:09;;;;;;;;;;;16.60;67.40;;;;;;5036517;28;20012;-79
2022/10/08 02:02:38;;;;;;;;;;;16.60;67.40;;;;;;5034972;28;20266;-79
2022/10/08 02:05:04;;;;;;;;;;;16.50;67.40;;;;;;5051597;28;19917;-79
2022/10/08 02:07:31;;;;;;;;;;;16.50;67.40;;;;;;5036298;28;19920;-79
2022/10/08 02:10:17;;;;;;;;;;;16.50;68.10;;;;;;5051673;28;19916;-80
2022/10/08 02:12:43;;;;;;;;;;;16.50;67.40;;;;;;5051853;28;20376;-80
2022/10/08 02:15:12;;;;;;;;;;;16.50;67.40;;;;;;5036451;28;19921;-79
2022/10/08 02:17:58;;;;;;;;;;;16.50;67.40;;;;;;5035294;28;19944;-78
2022/10/08 02:20:32;;;;;;;;;;;16.50;67.50;;;;;;4988907;28;19959;-79
2022/10/08 02:23:01;;;;;;;;;;;16.50;67.50;;;;;;5034911;28;19913;-79
2022/10/08 02:25:33;;;;;;;;;;;16.50;67.50;;;;;;5034891;28;19963;-78
2022/10/08 02:28:08;;;;;;;;;;;16.50;67.50;;;;;;5034635;28;19913;-79
2022/10/08 02:30:39;;;;;;;;;;;16.50;67.50;;;;;;5036326;28;20410;-79
2022/10/08 02:33:09;;;;;;;;;;;16.50;67.60;;;;;;5036333;28;19920;-78
2022/10/08 02:35:38;;;;;;;;;;;16.50;67.60;;;;;;5035917;28;20396;-79
2022/10/08 02:38:16;;;;;;;;;;;16.50;67.60;;;;;;5051363;28;20004;-79
2022/10/08 02:40:44;;;;;;;;;;;16.50;67.60;;;;;;5035304;28;19912;-79
2022/10/08 02:43:18;;;;;;;;;;;16.50;67.60;;;;;;5034381;28;19909;-79
2022/10/08 02:45:46;;;;;;;;;;;16.50;67.70;;;;;;5034697;28;20302;-78
2022/10/08 02:48:21;;;;;;;;;;;16.50;67.70;;;;;;5034199;28;19909;-79
2022/10/08 02:50:50;;;;;;;;;;;16.50;67.70;;;;;;5034690;28;19925;-79
2022/10/08 02:53:17;;;;;;;;;;;16.50;67.70;;;;;;5035485;28;19917;-79
2022/10/08 02:55:45;;;;;;;;;;;16.50;67.70;;;;;;5034267;28;19971;-79
2022/10/08 02:58:11;;;;;;;;;;;16.50;67.80;;;;;;5050867;28;19916;-78
2022/10/08 03:00:48;;;;;;;;;;;16.50;67.80;;;;;;5034397;28;19964;-78
2022/10/08 03:03:16;;;;;;;;;;;16.50;67.80;;;;;;5050863;28;20362;-78
2022/10/08 03:05:42;;;;;;;;;;;16.50;67.80;;;;;;5033726;28;19915;-78
2022/10/08 03:08:10;;;;;;;;;;;16.40;67.80;;;;;;5034826;28;20016;-78
2022/10/08 03:10:36;;;;;;;;;;;16.40;67.80;;;;;;5033669;28;19979;-79
2022/10/08 03:13:03;;;;;;;;;;;16.40;67.90;;;;;;5034995;28;19957;-79
2022/10/08 03:15:30;;;;;;;;;;;16.40;67.80;;;;;;5033515;28;19913;-78
2022/10/08 03:17:56;;;;;;;;;;;16.40;67.80;;;;;;5035154;28;19917;-79
2022/10/08 03:20:22;;;;;;;;;;;16.40;67.80;;;;;;5034766;28;19965;-78
2022/10/08 03:22:48;;;;;;;;;;;16.40;67.80;;;;;;5051438;28;19947;-79
2022/10/08 03:25:13;;;;;;;;;;;16.40;67.80;;;;;;5033455;28;19913;-78
2022/10/08 03:27:39;;;;;;;;;;;16.40;67.80;;;;;;5033390;28;19917;-78
2022/10/08 03:30:05;;;;;;;;;;;16.40;67.90;;;;;;5033455;28;20316;-78
2022/10/08 03:32:30;;;;;;;;;;;16.40;67.90;;;;;;5017705;28;19917;-78
2022/10/08 03:34:56;;;;;;;;;;;16.40;67.90;;;;;;5033443;28;19925;-79
2022/10/08 03:37:22;;;;;;;;;;;16.40;67.90;;;;;;5034398;28;20004;-79
2022/10/08 03:39:47;;;;;;;;;;;16.30;67.90;;;;;;5034282;28;19920;-79
2022/10/08 03:42:13;;;;;;;;;;;16.40;68.00;;;;;;5035470;28;19936;-79
2022/10/08 03:44:39;;;;;;;;;;;16.40;68.00;;;;;;5032948;28;20275;-79
2022/10/08 03:47:04;;;;;;;;;;;16.40;68.00;;;;;;5034591;28;19920;-79
2022/10/08 03:49:30;;;;;;;;;;;16.30;68.00;;;;;;5016873;28;20011;-79
2022/10/08 03:51:55;;;;;;;;;;;16.30;68.00;;;;;;5033112;28;19909;-79
2022/10/08 03:54:21;;;;;;;;;;;16.30;68.00;;;;;;5034496;28;19926;-79
2022/10/08 03:56:47;;;;;;;;;;;16.30;68.00;;;;;;5016731;28;20423;-78
2022/10/08 03:59:12;;;;;;;;;;;16.30;68.00;;;;;;5033144;28;19917;-78
2022/10/08 04:01:38;;;;;;;;;;;16.30;68.10;;;;;;5034750;28;20366;-79
2022/10/08 04:04:03;;;;;;;;;;;16.30;68.00;;;;;;5032658;28;19924;-79
2022/10/08 04:06:29;;;;;;;;;;;16.30;68.00;;;;;;5049293;28;19952;-79
2022/10/08 04:09:00;;;;;;;;;;;16.30;68.10;;;;;;5033728;28;19917;-79
2022/10/08 04:11:26;;;;;;;;;;;16.30;68.10;;;;;;5033830;28;20289;-78
2022/10/08 04:13:52;;;;;;;;;;;16.30;68.10;;;;;;5033986;28;19923;-78
2022/10/08 04:16:18;;;;;;;;;;;16.30;68.10;;;;;;5049387;28;20019;-79
2022/10/08 04:18:44;;;;;;;;;;;16.30;68.10;;;;;;5032791;28;20277;-79
2022/10/08 04:21:11;;;;;;;;;;;16.20;68.10;;;;;;5033755;28;19917;-79
2022/10/08 04:23:37;;;;;;;;;;;16.20;68.10;;;;;;5049394;28;19961;-79
2022/10/08 04:26:03;;;;;;;;;;;16.20;68.10;;;;;;5033679;28;19917;-79
2022/10/08 04:28:29;;;;;;;;;;;16.20;68.10;;;;;;5015830;28;19917;-79
2022/10/08 04:30:55;;;;;;;;;;;16.20;68.10;;;;;;5033953;28;20253;-79
2022/10/08 04:33:21;;;;;;;;;;;16.20;68.10;;;;;;5034308;28;19928;-79
2022/10/08 04:35:46;;;;;;;;;;;16.20;68.10;;;;;;5032654;28;19917;-79
2022/10/08 04:38:13;;;;;;;;;;;16.20;68.20;;;;;;5033566;28;20305;-79
2022/10/08 04:40:38;;;;;;;;;;;16.20;68.20;;;;;;5032448;28;20277;-79
2022/10/08 04:43:04;;;;;;;;;;;16.10;68.10;;;;;;5032265;28;19914;-79
2022/10/08 04:45:30;;;;;;;;;;;16.10;68.10;;;;;;5016027;28;19926;-78
2022/10/08 04:47:55;;;;;;;;;;;16.10;68.10;;;;;;5033051;28;19920;-79
2022/10/08 04:50:21;;;;;;;;;;;16.10;68.10;;;;;;5034211;28;19921;-78
2022/10/08 04:52:46;;;;;;;;;;;16.10;68.20;;;;;;5032813;28;19921;-79
2022/10/08 04:55:12;;;;;;;;;;;16.10;68.20;;;;;;5033233;28;20396;-79
2022/10/08 04:57:38;;;;;;;;;;;16.10;68.20;;;;;;5032058;28;19951;-79
2022/10/08 05:00:04;;;;;;;;;;;16.10;68.20;;;;;;5049122;28;20021;-79
2022/10/08 05:02:30;;;;;;;;;;;16.10;68.20;;;;;;5033325;28;19916;-78
2022/10/08 05:04:56;;;;;;;;;;;16.10;68.20;;;;;;5033180;28;19913;-78
2022/10/08 05:07:21;;;;;;;;;;;16.10;68.20;;;;;;5048885;28;20012;-78
2022/10/08 05:09:47;;;;;;;;;;;16.00;68.20;;;;;;5015840;28;20305;-78
2022/10/08 05:12:12;;;;;;;;;;;16.10;68.30;;;;;;5032138;28;20004;-79
2022/10/08 05:14:38;;;;;;;;;;;16.10;68.30;;;;;;5031913;28;19936;-78
2022/10/08 05:17:04;;;;;;;;;;;16.00;68.20;;;;;;5032286;28;19914;-79
2022/10/08 05:19:29;;;;;;;;;;;16.00;68.20;;;;;;5032911;28;19924;-78
2022/10/08 05:21:55;;;;;;;;;;;16.00;68.20;;;;;;5015592;28;19913;-78
2022/10/08 05:24:20;;;;;;;;;;;16.00;68.20;;;;;;5015551;28;20010;-78
2022/10/08 05:26:46;;;;;;;;;;;16.00;68.30;;;;;;5048291;28;20269;-78
2022/10/08 05:29:12;;;;;;;;;;;16.00;68.30;;;;;;5048820;28;19918;-78
2022/10/08 05:31:37;;;;;;;;;;;16.00;68.30;;;;;;5033000;28;19925;-78
2022/10/08 05:34:03;;;;;;;;;;;16.00;68.30;;;;;;5032298;28;20028;-78
2022/10/08 05:36:29;;;;;;;;;;;16.00;68.30;;;;;;5032532;28;20374;-78
2022/10/08 05:38:57;;;;;;;;;;;16.00;68.30;;;;;;5031712;28;19917;-79
2022/10/08 05:41:24;;;;;;;;;;;16.00;68.30;;;;;;5034881;28;20215;-78
2022/10/08 05:43:50;;;;;;;;;;;16.00;68.40;;;;;;5035500;28;19919;-78
2022/10/08 05:46:16;;;;;;;;;;;16.00;68.30;;;;;;5052517;28;20424;-78
2022/10/08 05:48:42;;;;;;;;;;;16.00;68.40;;;;;;5036514;28;19991;-79
2022/10/08 05:51:09;;;;;;;;;;;15.90;68.30;;;;;;5035659;28;19928;-78
2022/10/08 05:53:39;;;;;;;;;;;16.00;68.40;;;;;;5035680;28;19925;-78
2022/10/08 05:56:06;;;;;;;;;;;15.90;68.30;;;;;;5036130;28;20315;-78
2022/10/08 05:58:33;;;;;;;;;;;15.90;68.30;;;;;;5019774;28;19937;-79
2022/10/08 06:01:00;;;;;;;;;;;15.90;68.30;;;;;;5036494;28;19960;-80
2022/10/08 06:03:26;;;;;;;;;;;15.90;68.30;;;;;;5035614;28;19958;-78
2022/10/08 06:05:52;;;;;;;;;;;15.90;68.30;;;;;;5051566;28;19921;-78
2022/10/08 06:08:18;;;;;;;;;;;15.90;68.30;;;;;;5018708;28;20014;-78
2022/10/08 06:10:53;;;;;;;;;;;15.90;68.30;;;;;;5036157;28;19917;-79
2022/10/08 06:13:20;;;;;;;;;;;15.90;68.30;;;;;;5036499;28;20011;-78
2022/10/08 06:15:59;;;;;;;;;;;15.90;68.30;;;;;;5035241;28;20421;-78
2022/10/08 06:18:26;;;;;;;;;;;15.90;68.30;;;;;;5036060;28;19958;-78
2022/10/08 06:20:51;;;;;;;;;;;15.90;68.30;;;;;;5036012;28;19913;-78
2022/10/08 06:23:18;;;;;;;;;;;15.90;68.30;;;;;;5034846;28;19928;-78
2022/10/08 06:25:43;;;;;;;;;;;15.90;68.30;;;;;;5035020;28;19916;-80
2022/10/08 06:28:09;;;;;;;;;;;15.90;69.00;;;;;;5051165;28;20374;-78
2022/10/08 06:30:35;;;;;;;;;;;15.90;68.40;;;;;;5034310;28;20035;-78
2022/10/08 06:33:01;;;;;;;;;;;15.90;68.40;;;;;;5018464;28;20286;-78
2022/10/08 06:35:26;;;;;;;;;;;15.90;68.40;;;;;;5035883;28;20328;-78
2022/10/08 06:37:52;;;;;;;;;;;15.80;68.30;;;;;;5034671;28;19921;-78
2022/10/08 06:40:17;;;;;;;;;;;15.90;68.50;;;;;;5017810;28;20339;-78
2022/10/08 06:42:43;;;;;;;;;;;15.90;68.40;;;;;;5034470;28;19924;-78
2022/10/08 06:45:09;;;;;;;;;;;15.90;68.40;;;;;;5034474;28;19936;-78
2022/10/08 06:47:34;;;;;;;;;;;15.90;68.40;;;;;;5034325;28;19960;-79
2022/10/08 06:50:00;;;;;;;;;;;15.90;68.40;;;;;;5034290;28;19909;-78
2022/10/08 06:52:26;;;;;;;;;;;15.90;68.40;;;;;;5033895;28;20390;-78
2022/10/08 06:54:52;;;;;;;;;;;15.90;68.40;;;;;;5034183;28;20015;-78
2022/10/08 06:57:18;;;;;;;;;;;15.90;68.40;;;;;;5035325;28;20012;-79
2022/10/08 06:59:43;;;;;;;;;;;15.90;68.40;;;;;;5035919;28;20269;-79
2022/10/08 07:02:09;;;;;;;;;;;15.80;68.40;;;;;;5051046;28;19913;-79
2022/10/08 07:04:35;;;;;;;;;;;15.80;68.40;;;;;;5034393;28;19954;-79
2022/10/08 07:07:00;;;;;;;;;;;15.80;68.40;;;;;;5050650;28;20012;-79
2022/10/08 07:09:26;;;;;;;;;;;15.80;68.40;;;;;;5033797;28;19917;-80
2022/10/08 07:11:51;;;;;;;;;;;15.80;68.40;;;;;;5017741;28;19960;-79
2022/10/08 07:14:17;;;;;;;;;;;15.80;68.40;;;;;;5033698;28;20017;-79
2022/10/08 07:16:43;;;;;;;;;;;15.80;68.50;;;;;;5017489;28;19918;-79
2022/10/08 07:19:08;;;;;;;;;;;15.80;68.50;;;;;;5017508;28;19960;-79
2022/10/08 07:21:34;;;;;;;;;;;15.80;68.50;;;;;;5033923;28;20336;-79
2022/10/08 07:24:00;;;;;;;;;;;15.80;68.50;;;;;;5034006;28;19925;-79
2022/10/08 07:26:27;;;;;;;;;;;15.80;68.50;;;;;;5033833;28;19920;-79
2022/10/08 07:28:52;;;;;;;;;;;15.80;68.50;;;;;;5017292;28;19917;-79
2022/10/08 07:31:20;;;;;;;;;;;15.80;68.50;;;;;;5034531;28;19936;-80
2022/10/08 07:33:45;;;;;;;;;;;15.80;68.50;;;;;;5050016;28;20012;-80
2022/10/08 07:36:12;;;;;;;;;;;15.80;68.50;;;;;;5034432;28;19959;-79
2022/10/08 07:38:38;;;;;;;;;;;15.80;68.50;;;;;;5033356;28;20003;-79
2022/10/08 07:41:04;;;;;;;;;;;15.80;68.60;;;;;;5033345;28;19905;-79
2022/10/08 07:43:30;;;;;;;;;;;15.80;68.60;;;;;;5016992;28;20008;-79
2022/10/08 07:45:55;;;;;;;;;;;15.80;68.60;;;;;;5033620;28;19971;-79
2022/10/08 07:48:21;;;;;;;;;;;15.80;68.60;;;;;;5016726;28;19937;-79
2022/10/08 07:50:47;;;;;;;;;;;15.80;68.60;;;;;;5034374;28;19917;-78
2022/10/08 07:53:12;;;;;;;;;;;15.80;68.60;;;;;;5033114;28;19917;-79
2022/10/08 07:55:38;;;;;;;;;;;15.80;68.60;;;;;;5034788;28;20000;-79
2022/10/08 07:58:03;;;;;;;;;;;15.80;68.60;;;;;;5033097;28;19920;-79
2022/10/08 08:00:29;;;;;;;;;;;15.80;68.60;;;;;;5034127;28;19919;-79
2022/10/08 08:02:55;;;;;;;;;;;15.70;68.60;;;;;;5049416;28;19917;-79
2022/10/08 08:05:20;;;;;;;;;;;15.70;68.60;;;;;;5032491;28;19975;-79
2022/10/08 08:07:46;;;;;;;;;;;15.80;68.60;;;;;;5032859;28;20004;-78
2022/10/08 08:10:12;;;;;;;;;;;15.70;68.60;;;;;;5032767;28;19913;-79
2022/10/08 08:12:37;;;;;;;;;;;15.70;68.60;;;;;;5016897;28;19972;-78
2022/10/08 08:15:03;;;;;;;;;;;15.70;68.60;;;;;;5032723;28;19917;-79
2022/10/08 08:17:29;;;;;;;;;;;15.70;68.60;;;;;;5016446;28;19967;-79
2022/10/08 08:19:54;;;;;;;;;;;15.70;68.60;;;;;;5033095;28;19913;-79
2022/10/08 08:22:20;;;;;;;;;;;15.70;68.60;;;;;;5032486;28;19924;-79
2022/10/08 08:24:45;;;;;;;;;;;15.70;68.60;;;;;;5032636;28;19921;-78
2022/10/08 08:27:11;;;;;;;;;;;15.80;68.70;;;;;;5032938;28;19963;-79
2022/10/08 08:29:37;;;;;;;;;;;15.70;68.60;;;;;;5032550;28;19917;-79
2022/10/08 08:32:02;;;;;;;;;;;15.70;68.60;;;;;;5032623;28;19925;-78
2022/10/08 08:34:29;;;;;;;;;;;15.70;68.60;;;;;;5032565;28;19922;-78
2022/10/08 08:36:55;;;;;;;;;;;15.70;68.60;;;;;;5032589;28;20366;-79
2022/10/08 08:39:20;;;;;;;;;;;15.70;68.60;;;;;;5033818;28;19909;-79
2022/10/08 08:41:49;;;;;;;;;;;15.80;68.70;;;;;;5049833;28;19921;-79
2022/10/08 08:44:33;;;;;;;;;;;15.70;68.70;;;;;;5049204;28;19997;-79
2022/10/08 08:47:02;;;;;;;;;;;15.80;68.70;;;;;;5033981;28;19913;-80
2022/10/08 08:49:32;;;;;;;;;;;15.70;68.60;;;;;;5033779;28;20030;-79
2022/10/08 08:51:59;;;;;;;;;;;15.80;68.60;;;;;;5032600;28;19992;-79
2022/10/08 08:54:25;;;;;;;;;;;15.80;68.60;;;;;;5032434;28;19917;-79
2022/10/08 08:56:51;;;;;;;;;;;15.80;68.60;;;;;;5032224;28;19924;-79
2022/10/08 08:59:20;;;;;;;;;;;15.90;68.60;;;;;;5032497;28;19917;-78
2022/10/08 09:01:46;;;;;;;;;;;15.90;68.60;;;;;;5049246;28;19964;-79
2022/10/08 09:04:24;;;;;;;;;;;15.90;68.60;;;;;;5032644;28;19916;-79
2022/10/08 09:06:51;;;;;;;;;;;15.90;68.50;;;;;;5033768;28;19921;-79
2022/10/08 09:09:37;;;;;;;;;;;15.90;68.50;;;;;;5032181;28;20004;-79
2022/10/08 09:12:12;;;;;;;;;;;16.00;68.50;;;;;;5033216;28;19913;-79
2022/10/08 09:14:41;;;;;;;;;;;16.00;68.50;;;;;;5032886;28;19925;-79
2022/10/08 09:17:14;;;;;;;;;;;16.00;68.40;;;;;;5036056;28;20366;-80
2022/10/08 09:19:40;;;;;;;;;;;16.10;68.40;;;;;;5036127;28;19920;-79
2022/10/08 09:22:24;;;;;;;;;;;16.10;68.40;;;;;;5035855;28;19909;-80
2022/10/08 09:24:57;;;;;;;;;;;16.10;68.30;;;;;;5052935;28;19913;-79
2022/10/08 09:27:22;;;;;;;;;;;16.10;68.30;;;;;;5052632;28;19913;-79
2022/10/08 09:29:48;;;;;;;;;;;16.20;68.30;;;;;;5020255;28;19919;-79
2022/10/08 09:32:15;;;;;;;;;;;16.20;68.20;;;;;;5052529;28;19928;-79
2022/10/08 09:34:42;;;;;;;;;;;16.30;68.20;;;;;;5035562;28;19992;-79
2022/10/08 09:37:17;;;;;;;;;;;16.30;68.20;;;;;;5036525;28;19972;-79
2022/10/08 09:40:03;;;;;;;;;;;16.30;68.10;;;;;;5036922;28;19920;-79
2022/10/08 09:42:28;;;;;;;;;;;16.40;68.10;;;;;;5035498;28;20300;-79
2022/10/08 09:44:56;;;;;;;;;;;16.50;68.10;;;;;;5035932;28;19909;-79
2022/10/08 09:47:23;;;;;;;;;;;16.50;68.10;;;;;;5035800;28;19920;-81
2022/10/08 09:50:09;;;;;;;;;;;16.50;68.10;;;;;;5035959;28;19913;-80
2022/10/08 09:52:35;;;;;;;;;;;16.60;68.10;;;;;;5024685;28;19920;-80
2022/10/08 09:55:05;;;;;;;;;;;16.70;68.00;;;;;;5035431;28;19921;-80
2022/10/08 09:57:32;;;;;;;;;;;16.70;68.00;;;;;;5036988;28;19924;-80
2022/10/08 09:59:59;;;;;;;;;;;16.80;68.00;;;;;;5019531;28;19924;-79
2022/10/08 10:02:32;;;;;;;;;;;16.80;67.90;;;;;;5052746;28;19928;-80
2022/10/08 10:04:58;;;;;;;;;;;16.90;67.90;;;;;;5035062;28;19921;-80
2022/10/08 10:07:34;;;;;;;;;;;16.90;67.90;;;;;;5035225;28;19916;-79
2022/10/08 10:10:00;;;;;;;;;;;17.00;67.90;;;;;;5035162;28;19920;-79
2022/10/08 10:12:26;;;;;;;;;;;17.00;67.90;;;;;;5035327;28;19917;-79
2022/10/08 10:14:53;;;;;;;;;;;17.10;67.90;;;;;;5035989;28;19921;-78
2022/10/08 10:17:55;;;;;;;;;;;17.10;67.90;;;;;;5034783;28;19916;-79
2022/10/08 10:20:32;;;;;;;;;;;17.20;67.90;;;;;;4978958;28;19910;-79
2022/10/08 10:22:57;;;;;;;;;;;17.20;67.90;;;;;;5010341;28;19921;-79
2022/10/08 10:25:41;;;;;;;;;;;17.20;67.90;;;;;;5051729;28;19917;-79
2022/10/08 10:28:14;;;;;;;;;;;17.30;67.90;;;;;;5034022;28;19958;-79
2022/10/08 10:30:45;;;;;;;;;;;17.30;67.90;;;;;;5035637;28;19928;-79
2022/10/08 10:33:16;;;;;;;;;;;17.40;68.00;;;;;;5051061;28;19920;-79
2022/10/08 10:35:46;;;;;;;;;;;17.40;67.90;;;;;;5034674;28;20302;-79
2022/10/08 10:38:14;;;;;;;;;;;17.40;67.90;;;;;;5051479;28;19973;-77
2022/10/08 10:40:41;;;;;;;;;;;17.40;67.90;;;;;;5034567;28;19957;-77
2022/10/08 10:43:19;;;;;;;;;;;17.50;68.00;;;;;;5034218;28;19920;-81
2022/10/08 10:45:50;;;;;;;;;;;17.50;68.00;;;;;;5034583;28;19913;-80
2022/10/08 10:48:16;;;;;;;;;;;17.50;68.00;;;;;;5034601;28;19913;-80
2022/10/08 10:50:48;;;;;;;;;;;17.60;68.00;;;;;;5034319;28;20008;-81
2022/10/08 10:53:22;;;;;;;;;;;17.60;68.10;;;;;;5033682;28;19996;-79
2022/10/08 10:55:54;;;;;;;;;;;17.60;68.10;;;;;;5033468;28;19918;-81
2022/10/08 10:58:41;;;;;;;;;;;17.60;68.10;;;;;;5050938;28;19936;-80
2022/10/08 11:01:21;;;;;;;;;;;17.60;68.00;;;;;;5033755;28;19920;-82
2022/10/08 11:04:06;;;;;;;;;;;17.70;68.10;;;;;;5051364;28;19952;-83
2022/10/08 11:06:37;;;;;;;;;;;17.70;68.10;;;;;;5033968;28;20350;-82
2022/10/08 11:09:18;;;;;;;;;;;17.70;68.10;;;;;;5035616;28;19960;-81
2022/10/08 11:11:46;;;;;;;;;;;17.70;68.10;;;;;;5050442;28;19916;-80
2022/10/08 11:14:26;;;;;;;;;;;17.70;68.10;;;;;;5034815;28;19920;-81
2022/10/08 11:16:58;;;;;;;;;;;17.70;68.10;;;;;;5034051;28;19918;-81
2022/10/08 11:19:31;;;;;;;;;;;17.70;68.00;;;;;;5033434;28;19909;-85
2022/10/08 11:22:12;;;;;;;;;;;17.80;68.10;;;;;;5033508;28;20004;-82
2022/10/08 11:24:38;;;;;;;;;;;17.80;68.10;;;;;;5050023;28;19913;-82
2022/10/08 11:27:11;;;;;;;;;;;17.80;68.30;;;;;;5035149;28;20346;-82
2022/10/08 11:29:48;;;;;;;;;;;17.80;68.80;;;;;;5033390;28;19913;-82
2022/10/08 11:32:15;;;;;;;;;;;17.80;68.10;;;;;;5050278;28;19921;-82
2022/10/08 11:34:58;;;;;;;;;;;17.80;68.80;;;;;;5034375;28;19917;-81
2022/10/08 11:37:31;;;;;;;;;;;17.80;68.20;;;;;;5032877;28;20018;-83
2022/10/08 11:40:29;;;;;;;;;;;17.80;68.20;;;;;;5034541;28;20012;-81
2022/10/08 11:43:11;;;;;;;;;;;17.80;68.20;;;;;;5000995;28;19917;-82
2022/10/08 11:45:38;;;;;;;;;;;17.80;68.20;;;;;;5033675;28;19920;-81
2022/10/08 11:48:22;;;;;;;;;;;17.80;68.20;;;;;;5033016;28;19931;-82
2022/10/08 11:50:49;;;;;;;;;;;17.80;68.20;;;;;;5033088;28;19917;-82
2022/10/08 11:53:19;;;;;;;;;;;17.80;68.20;;;;;;5033451;28;20016;-82
2022/10/08 11:55:55;;;;;;;;;;;17.80;68.20;;;;;;5050225;28;20022;-82
2022/10/08 11:58:25;;;;;;;;;;;17.80;68.20;;;;;;5033296;28;19913;-82
2022/10/08 12:00:52;;;;;;;;;;;17.80;68.20;;;;;;5033427;28;19913;-81
2022/10/08 12:03:29;;;;;;;;;;;17.90;68.30;;;;;;5033001;28;19917;-82
2022/10/08 12:05:56;;;;;;;;;;;17.90;68.90;;;;;;5034170;28;19920;-82
2022/10/08 12:08:49;;;;;;;;;;;17.90;68.20;;;;;;5032885;28;19909;-81
2022/10/08 12:11:30;;;;;;;;;;;17.90;68.20;;;;;;5031896;28;19913;-80
2022/10/08 12:14:11;;;;;;;;;;;17.90;68.10;;;;;;5032245;28;19971;-80
2022/10/08 12:16:46;;;;;;;;;;;17.90;68.10;;;;;;5032432;28;20481;-80
2022/10/08 12:19:30;;;;;;;;;;;17.90;68.10;;;;;;5032178;28;19909;-81
2022/10/08 12:21:56;;;;;;;;;;;17.90;68.10;;;;;;5049202;28;20042;-80
2022/10/08 12:24:37;;;;;;;;;;;18.00;68.10;;;;;;5032600;28;19924;-80
2022/10/08 12:27:15;;;;;;;;;;;18.00;68.10;;;;;;5049174;28;19909;-80
2022/10/08 12:29:59;;;;;;;;;;;18.00;68.10;;;;;;5033230;28;20065;-80
2022/10/08 12:32:26;;;;;;;;;;;18.00;68.10;;;;;;5048707;28;19966;-81
2022/10/08 12:34:52;;;;;;;;;;;18.00;68.10;;;;;;5032130;28;19957;-80
2022/10/08 12:37:20;;;;;;;;;;;18.00;68.00;;;;;;5032191;28;19924;-80
2022/10/08 12:39:46;;;;;;;;;;;18.00;68.00;;;;;;5032257;28;19909;-84
2022/10/08 12:42:32;;;;;;;;;;;18.00;68.00;;;;;;5015898;28;19913;-80
2022/10/08 12:45:01;;;;;;;;;;;18.00;68.00;;;;;;5015098;28;20018;-81
2022/10/08 12:47:26;;;;;;;;;;;18.00;68.00;;;;;;5048446;28;19909;-80
2022/10/08 12:50:01;;;;;;;;;;;18.10;68.00;;;;;;5032917;28;19909;-81
2022/10/08 12:52:31;;;;;;;;;;;18.10;67.90;;;;;;5048829;28;19916;-81
2022/10/08 12:54:58;;;;;;;;;;;18.10;67.90;;;;;;5032225;28;19923;-80
2022/10/08 12:57:33;;;;;;;;;;;18.10;67.90;;;;;;5031641;28;19967;-80
2022/10/08 13:00:00;;;;;;;;;;;18.10;67.80;;;;;;5032269;28;19914;-80
2022/10/08 13:02:27;;;;;;;;;;;18.10;67.80;;;;;;5031892;28;20350;-80
2022/10/08 13:04:53;;;;;;;;;;;18.10;67.80;;;;;;5031724;28;20313;-80
2022/10/08 13:07:27;;;;;;;;;;;18.20;67.80;;;;;;5031903;28;19909;-80
2022/10/08 13:09:54;;;;;;;;;;;18.20;67.80;;;;;;5033086;28;19913;-80
2022/10/08 13:12:19;;;;;;;;;;;18.20;67.80;;;;;;5031117;28;20004;-79
2022/10/08 13:14:45;;;;;;;;;;;18.20;67.70;;;;;;5033163;28;19960;-80
2022/10/08 13:17:25;;;;;;;;;;;18.20;67.70;;;;;;5016016;28;20020;-81
2022/10/08 13:20:02;;;;;;;;;;;18.20;67.70;;;;;;5032823;28;19913;-80
2022/10/08 13:22:29;;;;;;;;;;;18.20;67.70;;;;;;5031887;28;20238;-81
2022/10/08 13:24:55;;;;;;;;;;;18.20;67.70;;;;;;5032814;28;19916;-80
2022/10/08 13:27:31;;;;;;;;;;;18.20;67.70;;;;;;5048164;28;19914;-80
2022/10/08 13:29:57;;;;;;;;;;;18.20;67.70;;;;;;5032018;28;20357;-81
2022/10/08 13:32:25;;;;;;;;;;;18.20;67.60;;;;;;5014487;28;20000;-80
2022/10/08 13:34:52;;;;;;;;;;;18.30;67.70;;;;;;5048453;28;20062;-80
2022/10/08 13:37:21;;;;;;;;;;;18.20;67.60;;;;;;5031572;28;20008;-80
2022/10/08 13:39:54;;;;;;;;;;;18.30;67.60;;;;;;5032839;28;19913;-79
2022/10/08 13:42:21;;;;;;;;;;;18.30;67.60;;;;;;5031444;28;19947;-80
2022/10/08 13:44:46;;;;;;;;;;;18.30;67.60;;;;;;5031517;28;19995;-80
2022/10/08 13:47:13;;;;;;;;;;;18.30;67.60;;;;;;5031468;28;20325;-81
2022/10/08 13:49:39;;;;;;;;;;;18.30;67.50;;;;;;5031602;28;19979;-80
2022/10/08 13:52:05;;;;;;;;;;;18.30;67.50;;;;;;5031034;28;20370;-81
2022/10/08 13:54:31;;;;;;;;;;;18.30;67.50;;;;;;5014952;28;19967;-80
2022/10/08 13:56:57;;;;;;;;;;;18.30;67.50;;;;;;5048051;28;19960;-80
2022/10/08 13:59:23;;;;;;;;;;;18.30;67.40;;;;;;5015419;28;19921;-80
2022/10/08 14:01:48;;;;;;;;;;;18.30;67.40;;;;;;5032171;28;19917;-80
2022/10/08 14:04:15;;;;;;;;;;;18.30;68.00;;;;;;5018898;28;19913;-80
2022/10/08 14:06:42;;;;;;;;;;;18.30;67.40;;;;;;5035139;28;19918;-81
2022/10/08 14:09:11;;;;;;;;;;;18.30;67.30;;;;;;5035313;28;19913;-80
2022/10/08 14:11:40;;;;;;;;;;;18.30;67.30;;;;;;5034627;28;19913;-81
2022/10/08 14:14:07;;;;;;;;;;;18.30;67.30;;;;;;5034287;28;20391;-80
2022/10/08 14:16:33;;;;;;;;;;;18.30;67.20;;;;;;5034433;28;20290;-80
2022/10/08 14:18:58;;;;;;;;;;;18.30;67.20;;;;;;5018198;28;19933;-80
2022/10/08 14:21:24;;;;;;;;;;;18.30;67.10;;;;;;5034452;28;19971;-80
2022/10/08 14:23:50;;;;;;;;;;;18.30;67.10;;;;;;5034478;28;20313;-80
2022/10/08 14:26:15;;;;;;;;;;;18.30;67.00;;;;;;5034569;28;19917;-80
2022/10/08 14:28:41;;;;;;;;;;;18.30;67.00;;;;;;5017831;28;19913;-80